sensor_id;sensor_type;location;lat;lon;timestamp;pressure;altitude;pressure_sealevel;temperature;humidity
30421;BME280;17218;54.070;10.012;2023-11-21T00:00:38;100895.22;;;8.42;100.00
30421;BME280;17218;54.070;10.012;2023-11-21T00:03:05;100904.69;;;8.46;100.00
30421;BME280;17218;54.070;10.012;2023-11-21T00:05:32;100915.00;;;8.42;100.00
30421;BME280;17218;54.070;10.012;2023-11-21T00:07:58;100914.16;;;8.43;100.00
30421;BME280;17218;54.070;10.012;2023-11-21T00:10:24;100913.28;;;8.44;100.00
30421;BME280;17218;54.070;10.012;2023-11-21T00:12:51;100904.66;;;8.34;100.00
30421;BME280;17218;54.070;10.012;2023-11-21T00:15:21;100906.38;;;8.33;100.00
30421;BME280;17218;54.070;10.012;2023-11-21T00:17:48;100910.66;;;8.34;100.00
30421;BME280;17218;54.070;10.012;2023-11-21T00:20:14;100918.41;;;8.36;100.00
30421;BME280;17218;54.070;10.012;2023-11-21T00:22:41;100914.94;;;8.29;100.00
30421;BME280;17218;54.070;10.012;2023-11-21T00:25:08;100914.09;;;8.32;100.00
30421;BME280;17218;54.070;10.012;2023-11-21T00:27:35;100920.09;;;8.26;100.00
30421;BME280;17218;54.070;10.012;2023-11-21T00:30:02;100920.94;;;8.25;100.00
30421;BME280;17218;54.070;10.012;2023-11-21T00:32:32;100916.66;;;8.29;100.00
30421;BME280;17218;54.070;10.012;2023-11-21T00:34:59;100913.19;;;8.22;100.00
30421;BME280;17218;54.070;10.012;2023-11-21T00:37:25;100905.44;;;8.23;100.00
30421;BME280;17218;54.070;10.012;2023-11-21T00:39:52;100913.19;;;8.23;100.00
30421;BME280;17218;54.070;10.012;2023-11-21T00:42:18;100908.84;;;8.15;100.00
30421;BME280;17218;54.070;10.012;2023-11-21T00:44:45;100917.47;;;8.18;100.00
30421;BME280;17218;54.070;10.012;2023-11-21T00:47:11;100905.38;;;8.11;100.00
30421;BME280;17218;54.070;10.012;2023-11-21T00:49:39;100907.03;;;8.01;100.00
30421;BME280;17218;54.070;10.012;2023-11-21T00:52:06;100914.75;;;7.98;100.00
30421;BME280;17218;54.070;10.012;2023-11-21T00:54:33;100933.72;;;8.02;100.00
30421;BME280;17218;54.070;10.012;2023-11-21T00:56:59;100921.63;;;7.96;100.00
30421;BME280;17218;54.070;10.012;2023-11-21T00:59:26;100926.78;;;7.91;100.00
30421;BME280;17218;54.070;10.012;2023-11-21T01:01:52;100937.06;;;7.90;100.00
30421;BME280;17218;54.070;10.012;2023-11-21T01:04:19;100933.63;;;7.89;100.00
30421;BME280;17218;54.070;10.012;2023-11-21T01:06:47;100944.78;;;7.90;100.00
30421;BME280;17218;54.070;10.012;2023-11-21T01:09:14;100952.50;;;7.86;100.00
30421;BME280;17218;54.070;10.012;2023-11-21T01:11:43;100948.97;;;7.70;100.00
30421;BME280;17218;54.070;10.012;2023-11-21T01:14:10;100954.19;;;7.77;100.00
30421;BME280;17218;54.070;10.012;2023-11-21T01:16:36;100961.91;;;7.77;100.00
30421;BME280;17218;54.070;10.012;2023-11-21T01:19:02;100965.31;;;7.75;100.00
30421;BME280;17218;54.070;10.012;2023-11-21T01:21:29;100972.22;;;7.77;100.00
30421;BME280;17218;54.070;10.012;2023-11-21T01:23:58;100981.72;;;7.82;100.00
30421;BME280;17218;54.070;10.012;2023-11-21T01:26:24;100998.09;;;7.87;100.00
30421;BME280;17218;54.070;10.012;2023-11-21T01:28:50;100999.84;;;7.92;100.00
30421;BME280;17218;54.070;10.012;2023-11-21T01:31:17;101005.94;;;7.97;100.00
30421;BME280;17218;54.070;10.012;2023-11-21T01:33:44;101004.22;;;8.01;100.00
30421;BME280;17218;54.070;10.012;2023-11-21T01:36:11;101002.47;;;7.99;100.00
30421;BME280;17218;54.070;10.012;2023-11-21T01:38:37;101011.94;;;7.99;100.00
30421;BME280;17218;54.070;10.012;2023-11-21T01:41:05;101017.97;;;8.01;100.00
30421;BME280;17218;54.070;10.012;2023-11-21T01:43:32;101015.44;;;8.04;100.00
30421;BME280;17218;54.070;10.012;2023-11-21T01:45:59;101006.84;;;8.07;100.00
30421;BME280;17218;54.070;10.012;2023-11-21T01:48:26;101008.53;;;8.06;100.00
30421;BME280;17218;54.070;10.012;2023-11-21T01:50:53;101008.50;;;7.97;100.00
30421;BME280;17218;54.070;10.012;2023-11-21T01:53:20;101016.25;;;8.00;100.00
30421;BME280;17218;54.070;10.012;2023-11-21T01:55:46;101018.84;;;8.00;100.00
30421;BME280;17218;54.070;10.012;2023-11-21T01:58:15;101015.44;;;8.04;100.00
30421;BME280;17218;54.070;10.012;2023-11-21T02:00:42;101018.88;;;8.06;100.00
30421;BME280;17218;54.070;10.012;2023-11-21T02:03:08;101022.34;;;8.10;100.00
30421;BME280;17218;54.070;10.012;2023-11-21T02:05:36;101024.91;;;8.10;100.00
30421;BME280;17218;54.070;10.012;2023-11-21T02:08:03;101025.78;;;8.12;100.00
30421;BME280;17218;54.070;10.012;2023-11-21T02:10:30;101026.66;;;8.14;100.00
30421;BME280;17218;54.070;10.012;2023-11-21T02:12:56;101027.53;;;8.15;100.00
30421;BME280;17218;54.070;10.012;2023-11-21T02:15:25;101038.75;;;8.18;100.00
30421;BME280;17218;54.070;10.012;2023-11-21T02:17:54;101018.94;;;8.16;100.00
30421;BME280;17218;54.070;10.012;2023-11-21T02:20:21;101039.56;;;8.13;100.00
30421;BME280;17218;54.070;10.012;2023-11-21T02:22:52;101036.09;;;8.10;100.00
30421;BME280;17218;54.070;10.012;2023-11-21T02:25:23;101034.41;;;8.09;100.00
30421;BME280;17218;54.070;10.012;2023-11-21T02:27:49;101041.25;;;8.09;100.00
30421;BME280;17218;54.070;10.012;2023-11-21T02:30:16;101050.72;;;8.10;100.00
30421;BME280;17218;54.070;10.012;2023-11-21T02:32:44;101046.44;;;8.12;100.00
30421;BME280;17218;54.070;10.012;2023-11-21T02:35:11;101062.72;;;8.06;100.00
30421;BME280;17218;54.070;10.012;2023-11-21T02:37:38;101063.63;;;8.08;100.00
30421;BME280;17218;54.070;10.012;2023-11-21T02:40:09;101065.34;;;8.09;100.00
30421;BME280;17218;54.070;10.012;2023-11-21T02:42:37;101069.69;;;8.14;100.00
30421;BME280;17218;54.070;10.012;2023-11-21T02:45:05;101072.25;;;8.12;100.00
30421;BME280;17218;54.070;10.012;2023-11-21T02:47:32;101074.00;;;8.15;100.00
30421;BME280;17218;54.070;10.012;2023-11-21T02:49:59;101072.28;;;8.15;100.00
30421;BME280;17218;54.070;10.012;2023-11-21T02:52:25;101075.69;;;8.14;100.00
30421;BME280;17218;54.070;10.012;2023-11-21T02:54:52;101077.41;;;8.10;100.00
30421;BME280;17218;54.070;10.012;2023-11-21T02:57:20;101079.97;;;8.09;100.00
30421;BME280;17218;54.070;10.012;2023-11-21T02:59:46;101082.56;;;8.10;100.00
30421;BME280;17218;54.070;10.012;2023-11-21T03:02:13;101079.16;;;8.13;100.00
30421;BME280;17218;54.070;10.012;2023-11-21T03:04:40;101096.41;;;8.17;100.00
30421;BME280;17218;54.070;10.012;2023-11-21T03:07:08;101089.53;;;8.21;100.00
30421;BME280;17218;54.070;10.012;2023-11-21T03:09:34;101094.72;;;8.22;100.00
30421;BME280;17218;54.070;10.012;2023-11-21T03:12:02;101091.19;;;8.13;100.00
30421;BME280;17218;54.070;10.012;2023-11-21T03:14:30;101101.50;;;8.11;100.00
30421;BME280;17218;54.070;10.012;2023-11-21T03:16:56;101107.56;;;8.16;100.00
30421;BME280;17218;54.070;10.012;2023-11-21T03:19:23;101111.00;;;8.18;100.00
30421;BME280;17218;54.070;10.012;2023-11-21T03:21:49;101114.47;;;8.20;100.00
30421;BME280;17218;54.070;10.012;2023-11-21T03:24:18;101117.06;;;8.22;100.00
30421;BME280;17218;54.070;10.012;2023-11-21T03:26:45;101125.69;;;8.22;100.00
30421;BME280;17218;54.070;10.012;2023-11-21T03:29:12;101124.84;;;8.27;100.00
30421;BME280;17218;54.070;10.012;2023-11-21T03:31:40;101125.72;;;8.27;100.00
30421;BME280;17218;54.070;10.012;2023-11-21T03:34:06;101123.13;;;8.27;100.00
30421;BME280;17218;54.070;10.012;2023-11-21T03:36:33;101124.00;;;8.28;100.00
30421;BME280;17218;54.070;10.012;2023-11-21T03:38:59;101128.28;;;8.24;100.00
30421;BME280;17218;54.070;10.012;2023-11-21T03:41:26;101132.56;;;8.27;100.00
30421;BME280;17218;54.070;10.012;2023-11-21T03:43:52;101149.75;;;8.23;100.00
30421;BME280;17218;54.070;10.012;2023-11-21T03:46:18;101144.59;;;8.23;100.00
30421;BME280;17218;54.070;10.012;2023-11-21T03:48:46;101148.91;;;8.24;100.00
30421;BME280;17218;54.070;10.012;2023-11-21T03:51:13;101156.66;;;8.22;100.00
30421;BME280;17218;54.070;10.012;2023-11-21T03:53:39;101152.34;;;8.23;100.00
30421;BME280;17218;54.070;10.012;2023-11-21T03:56:06;101158.34;;;8.22;100.00
30421;BME280;17218;54.070;10.012;2023-11-21T03:58:33;101173.03;;;8.25;100.00
30421;BME280;17218;54.070;10.012;2023-11-21T04:00:59;101177.31;;;8.22;100.00
30421;BME280;17218;54.070;10.012;2023-11-21T04:03:26;101176.44;;;8.23;100.00
30421;BME280;17218;54.070;10.012;2023-11-21T04:05:54;101178.16;;;8.23;100.00
30421;BME280;17218;54.070;10.012;2023-11-21T04:08:21;101171.25;;;8.22;100.00
30421;BME280;17218;54.070;10.012;2023-11-21T04:10:47;101178.97;;;8.17;100.00
30421;BME280;17218;54.070;10.012;2023-11-21T04:13:14;101178.91;;;8.11;100.00
30421;BME280;17218;54.070;10.012;2023-11-21T04:15:40;101184.03;;;8.08;100.00
30421;BME280;17218;54.070;10.012;2023-11-21T04:18:06;101193.50;;;8.07;100.00
30421;BME280;17218;54.070;10.012;2023-11-21T04:20:33;101196.88;;;8.02;100.00
30421;BME280;17218;54.070;10.012;2023-11-21T04:23:01;101186.53;;;7.98;100.00
30421;BME280;17218;54.070;10.012;2023-11-21T04:25:28;101206.19;;;7.88;100.00
30421;BME280;17218;54.070;10.012;2023-11-21T04:27:55;101205.25;;;7.82;100.00
30421;BME280;17218;54.070;10.012;2023-11-21T04:30:21;101207.88;;;7.86;100.00
30421;BME280;17218;54.070;10.012;2023-11-21T04:32:47;101207.91;;;7.90;100.00
30421;BME280;17218;54.070;10.012;2023-11-21T04:35:14;101213.09;;;7.91;100.00
30421;BME280;17218;54.070;10.012;2023-11-21T04:37:40;101215.63;;;7.90;100.00
30421;BME280;17218;54.070;10.012;2023-11-21T04:40:09;101214.78;;;7.89;100.00
30421;BME280;17218;54.070;10.012;2023-11-21T04:42:36;101211.34;;;7.88;100.00
30421;BME280;17218;54.070;10.012;2023-11-21T04:45:03;101219.91;;;7.86;100.00
30421;BME280;17218;54.070;10.012;2023-11-21T04:47:33;101215.59;;;7.85;100.00
30421;BME280;17218;54.070;10.012;2023-11-21T04:50:00;101226.75;;;7.82;100.00
30421;BME280;17218;54.070;10.012;2023-11-21T04:52:26;101225.91;;;7.85;100.00
30421;BME280;17218;54.070;10.012;2023-11-21T04:54:53;101236.22;;;7.83;100.00
30421;BME280;17218;54.070;10.012;2023-11-21T04:57:21;101233.56;;;7.79;100.00
30421;BME280;17218;54.070;10.012;2023-11-21T04:59:48;101233.63;;;7.80;100.00
30421;BME280;17218;54.070;10.012;2023-11-21T05:02:14;101231.06;;;7.83;100.00
30421;BME280;17218;54.070;10.012;2023-11-21T05:04:41;101229.38;;;7.87;100.00
30421;BME280;17218;54.070;10.012;2023-11-21T05:07:09;101236.25;;;7.88;100.00
30421;BME280;17218;54.070;10.012;2023-11-21T05:09:35;101232.88;;;7.91;100.00
30421;BME280;17218;54.070;10.012;2023-11-21T05:12:03;101238.84;;;7.90;100.00
30421;BME280;17218;54.070;10.012;2023-11-21T05:14:31;101245.75;;;7.89;100.00
30421;BME280;17218;54.070;10.012;2023-11-21T05:16:57;101248.34;;;7.89;100.00
30421;BME280;17218;54.070;10.012;2023-11-21T05:19:24;101256.88;;;7.86;100.00
30421;BME280;17218;54.070;10.012;2023-11-21T05:21:50;101247.47;;;7.88;100.00
30421;BME280;17218;54.070;10.012;2023-11-21T05:24:17;101258.66;;;7.89;100.00
30421;BME280;17218;54.070;10.012;2023-11-21T05:26:43;101264.63;;;7.88;100.00
30421;BME280;17218;54.070;10.012;2023-11-21T05:29:10;101273.34;;;7.95;100.00
30421;BME280;17218;54.070;10.012;2023-11-21T05:31:38;101280.25;;;7.97;100.00
30421;BME280;17218;54.070;10.012;2023-11-21T05:34:04;101288.75;;;7.92;100.00
30421;BME280;17218;54.070;10.012;2023-11-21T05:36:31;101296.50;;;7.92;100.00
30421;BME280;17218;54.070;10.012;2023-11-21T05:38:57;101290.53;;;7.96;100.00
30421;BME280;17218;54.070;10.012;2023-11-21T05:41:24;101293.97;;;7.95;100.00
30421;BME280;17218;54.070;10.012;2023-11-21T05:43:51;101299.16;;;7.95;100.00
30421;BME280;17218;54.070;10.012;2023-11-21T05:46:19;101294.81;;;7.95;100.00
30421;BME280;17218;54.070;10.012;2023-11-21T05:48:47;101297.38;;;7.94;100.00
30421;BME280;17218;54.070;10.012;2023-11-21T05:51:13;101300.84;;;7.94;100.00
30421;BME280;17218;54.070;10.012;2023-11-21T05:53:40;101306.91;;;7.96;100.00
30421;BME280;17218;54.070;10.012;2023-11-21T05:56:07;101318.88;;;7.93;100.00
30421;BME280;17218;54.070;10.012;2023-11-21T05:58:33;101324.03;;;7.91;100.00
30421;BME280;17218;54.070;10.012;2023-11-21T06:01:00;101316.22;;;7.88;100.00
30421;BME280;17218;54.070;10.012;2023-11-21T06:03:26;101320.56;;;7.89;100.00
30421;BME280;17218;54.070;10.012;2023-11-21T06:05:54;101321.41;;;7.90;100.00
30421;BME280;17218;54.070;10.012;2023-11-21T06:08:21;101327.41;;;7.85;100.00
30421;BME280;17218;54.070;10.012;2023-11-21T06:10:47;101339.41;;;7.85;100.00
30421;BME280;17218;54.070;10.012;2023-11-21T06:13:14;101345.38;;;7.81;100.00
30421;BME280;17218;54.070;10.012;2023-11-21T06:15:41;101349.69;;;7.82;100.00
30421;BME280;17218;54.070;10.012;2023-11-21T06:18:07;101347.09;;;7.80;100.00
30421;BME280;17218;54.070;10.012;2023-11-21T06:20:35;101352.22;;;7.79;100.00
30421;BME280;17218;54.070;10.012;2023-11-21T06:23:03;101353.09;;;7.79;100.00
30421;BME280;17218;54.070;10.012;2023-11-21T06:25:30;101357.34;;;7.75;100.00
30421;BME280;17218;54.070;10.012;2023-11-21T06:27:58;101353.88;;;7.75;100.00
30421;BME280;17218;54.070;10.012;2023-11-21T06:30:24;101356.44;;;7.73;100.00
30421;BME280;17218;54.070;10.012;2023-11-21T06:32:51;101372.81;;;7.74;100.00
30421;BME280;17218;54.070;10.012;2023-11-21T06:35:18;101364.19;;;7.73;100.00
30421;BME280;17218;54.070;10.012;2023-11-21T06:37:45;101371.91;;;7.73;100.00
30421;BME280;17218;54.070;10.012;2023-11-21T06:40:14;101382.25;;;7.75;100.00
30421;BME280;17218;54.070;10.012;2023-11-21T06:42:41;101389.97;;;7.73;100.00
30421;BME280;17218;54.070;10.012;2023-11-21T06:45:09;101399.44;;;7.73;100.00
30421;BME280;17218;54.070;10.012;2023-11-21T06:47:36;101406.28;;;7.71;100.00
30421;BME280;17218;54.070;10.012;2023-11-21T06:50:04;101415.72;;;7.69;100.00
30421;BME280;17218;54.070;10.012;2023-11-21T06:52:30;101431.19;;;7.69;100.00
30421;BME280;17218;54.070;10.012;2023-11-21T06:54:57;101429.38;;;7.64;100.00
30421;BME280;17218;54.070;10.012;2023-11-21T06:57:25;101439.69;;;7.63;100.00
30421;BME280;17218;54.070;10.012;2023-11-21T06:59:51;101440.59;;;7.67;100.00
30421;BME280;17218;54.070;10.012;2023-11-21T07:02:17;101448.34;;;7.67;100.00
30421;BME280;17218;54.070;10.012;2023-11-21T07:04:44;101444.84;;;7.63;100.00
30421;BME280;17218;54.070;10.012;2023-11-21T07:07:11;101454.31;;;7.66;100.00
30421;BME280;17218;54.070;10.012;2023-11-21T07:09:38;101450.91;;;7.67;100.00
30421;BME280;17218;54.070;10.012;2023-11-21T07:12:05;101450.91;;;7.65;100.00
30421;BME280;17218;54.070;10.012;2023-11-21T07:14:34;101455.22;;;7.68;100.00
30421;BME280;17218;54.070;10.012;2023-11-21T07:17:00;101459.47;;;7.66;100.00
30421;BME280;17218;54.070;10.012;2023-11-21T07:19:27;101473.97;;;7.57;100.00
30421;BME280;17218;54.070;10.012;2023-11-21T07:21:54;101465.31;;;7.54;100.00
30421;BME280;17218;54.070;10.012;2023-11-21T07:24:21;101467.00;;;7.51;100.00
30421;BME280;17218;54.070;10.012;2023-11-21T07:26:47;101479.88;;;7.50;100.00
30421;BME280;17218;54.070;10.012;2023-11-21T07:29:14;101470.41;;;7.49;100.00
30421;BME280;17218;54.070;10.012;2023-11-21T07:31:42;101478.97;;;7.49;100.00
30421;BME280;17218;54.070;10.012;2023-11-21T07:34:08;101479.00;;;7.51;100.00
30421;BME280;17218;54.070;10.012;2023-11-21T07:36:35;101473.03;;;7.52;100.00
30421;BME280;17218;54.070;10.012;2023-11-21T07:39:02;101475.59;;;7.52;100.00
30421;BME280;17218;54.070;10.012;2023-11-21T07:41:28;101477.34;;;7.55;100.00
30421;BME280;17218;54.070;10.012;2023-11-21T07:54:17;101498.25;;;7.70;100.00
30421;BME280;17218;54.070;10.012;2023-11-21T07:56:43;101491.44;;;7.74;100.00
30421;BME280;17218;54.070;10.012;2023-11-21T07:59:10;101497.50;;;7.76;100.00
30421;BME280;17218;54.070;10.012;2023-11-21T08:01:37;101504.44;;;7.80;100.00
30421;BME280;17218;54.070;10.012;2023-11-21T08:04:05;101497.56;;;7.81;100.00
30421;BME280;17218;54.070;10.012;2023-11-21T08:06:32;101496.72;;;7.80;100.00
30421;BME280;17218;54.070;10.012;2023-11-21T08:08:59;101506.16;;;7.80;100.00
30421;BME280;17218;54.070;10.012;2023-11-21T08:11:27;101508.72;;;7.80;100.00
30421;BME280;17218;54.070;10.012;2023-11-21T08:13:54;101513.91;;;7.81;100.00
30421;BME280;17218;54.070;10.012;2023-11-21T08:16:21;101508.72;;;7.78;100.00
30421;BME280;17218;54.070;10.012;2023-11-21T08:18:49;101512.22;;;7.83;100.00
30421;BME280;17218;54.070;10.012;2023-11-21T08:21:15;101524.34;;;7.87;100.00
30421;BME280;17218;54.070;10.012;2023-11-21T08:23:42;101522.72;;;7.94;100.00
30421;BME280;17218;54.070;10.012;2023-11-21T08:26:08;101535.69;;;7.99;100.00
30421;BME280;17218;54.070;10.012;2023-11-21T08:28:36;101538.34;;;8.02;100.00
30421;BME280;17218;54.070;10.012;2023-11-21T08:41:23;101555.25;;;8.40;100.00
30421;BME280;17218;54.070;10.012;2023-11-21T08:43:50;101563.94;;;8.47;100.00
30421;BME280;17218;54.070;10.012;2023-11-21T08:46:18;101564.03;;;8.52;100.00
30421;BME280;17218;54.070;10.012;2023-11-21T08:48:44;101555.19;;;8.34;100.00
30421;BME280;17218;54.070;10.012;2023-11-21T08:51:14;101568.94;;;8.34;100.00
30421;BME280;17218;54.070;10.012;2023-11-21T08:53:41;101562.19;;;8.43;100.00
30421;BME280;17218;54.070;10.012;2023-11-21T08:56:08;101569.97;;;8.46;100.00
30421;BME280;17218;54.070;10.012;2023-11-21T08:58:38;101579.41;;;8.45;100.00
30421;BME280;17218;54.070;10.012;2023-11-21T09:01:06;101577.75;;;8.49;100.00
30421;BME280;17218;54.070;10.012;2023-11-21T09:03:33;101583.00;;;8.54;100.00
30421;BME280;17218;54.070;10.012;2023-11-21T09:06:00;101581.34;;;8.56;100.00
30421;BME280;17218;54.070;10.012;2023-11-21T09:08:26;101585.66;;;8.58;100.00
30421;BME280;17218;54.070;10.012;2023-11-21T09:10:53;101596.16;;;8.69;100.00
30421;BME280;17218;54.070;10.012;2023-11-21T09:13:20;101594.56;;;8.76;100.00
30421;BME280;17218;54.070;10.012;2023-11-21T09:15:46;101593.84;;;8.88;100.00
30421;BME280;17218;54.070;10.012;2023-11-21T09:18:16;101609.47;;;8.99;100.00
30421;BME280;17218;54.070;10.012;2023-11-21T09:20:42;101609.56;;;9.04;100.00
30421;BME280;17218;54.070;10.012;2023-11-21T09:23:09;101611.34;;;9.10;100.00
30421;BME280;17218;54.070;10.012;2023-11-21T09:25:36;101614.84;;;9.13;100.00
30421;BME280;17218;54.070;10.012;2023-11-21T09:28:03;101615.69;;;9.14;100.00
30421;BME280;17218;54.070;10.012;2023-11-21T09:30:33;101617.44;;;9.13;100.00
30421;BME280;17218;54.070;10.012;2023-11-21T09:32:59;101629.50;;;9.14;100.00
30421;BME280;17218;54.070;10.012;2023-11-21T09:35:27;101616.63;;;9.19;100.00
30421;BME280;17218;54.070;10.012;2023-11-21T09:37:54;101631.28;;;9.18;100.00
30421;BME280;17218;54.070;10.012;2023-11-21T09:40:21;101627.84;;;9.19;100.00
30421;BME280;17218;54.070;10.012;2023-11-21T09:42:53;101631.31;;;9.20;100.00
30421;BME280;17218;54.070;10.012;2023-11-21T09:45:25;101630.41;;;9.18;100.00
30421;BME280;17218;54.070;10.012;2023-11-21T09:47:52;101631.22;;;9.15;100.00
30421;BME280;17218;54.070;10.012;2023-11-21T09:50:21;101625.25;;;9.18;100.00
30421;BME280;17218;54.070;10.012;2023-11-21T09:52:55;101629.53;;;9.19;100.00
30421;BME280;17218;54.070;10.012;2023-11-21T09:55:26;101630.47;;;9.23;100.00
30421;BME280;17218;54.070;10.012;2023-11-21T09:57:54;101646.91;;;9.26;100.00
30421;BME280;17218;54.070;10.012;2023-11-21T10:00:22;101638.25;;;9.23;100.00
30421;BME280;17218;54.070;10.012;2023-11-21T10:02:49;101644.28;;;9.25;100.00
30421;BME280;17218;54.070;10.012;2023-11-21T10:05:18;101657.25;;;9.28;100.00
30421;BME280;17218;54.070;10.012;2023-11-21T10:07:45;101653.91;;;9.35;100.00
30421;BME280;17218;54.070;10.012;2023-11-21T10:10:15;101654.81;;;9.39;100.00
30421;BME280;17218;54.070;10.012;2023-11-21T10:12:48;101663.47;;;9.41;100.00
30421;BME280;17218;54.070;10.012;2023-11-21T10:15:16;101662.69;;;9.48;100.00
30421;BME280;17218;54.070;10.012;2023-11-21T10:17:44;101667.03;;;9.52;100.00
30421;BME280;17218;54.070;10.012;2023-11-21T10:20:13;101662.72;;;9.51;100.00
30421;BME280;17218;54.070;10.012;2023-11-21T10:22:40;101667.88;;;9.50;100.00
30421;BME280;17218;54.070;10.012;2023-11-21T10:25:08;101668.66;;;9.44;100.00
30421;BME280;17218;54.070;10.012;2023-11-21T10:27:36;101671.94;;;9.30;100.00
30421;BME280;17218;54.070;10.012;2023-11-21T10:30:05;101676.94;;;9.16;100.00
30421;BME280;17218;54.070;10.012;2023-11-21T10:32:32;101681.97;;;9.07;100.00
30421;BME280;17218;54.070;10.012;2023-11-21T10:34:59;101690.47;;;9.00;100.00
30421;BME280;17218;54.070;10.012;2023-11-21T10:37:31;101696.41;;;8.94;100.00
30421;BME280;17218;54.070;10.012;2023-11-21T10:39:58;101697.16;;;8.85;100.00
30421;BME280;17218;54.070;10.012;2023-11-21T10:42:24;101695.25;;;8.75;100.00
30421;BME280;17218;54.070;10.012;2023-11-21T10:44:54;101698.47;;;8.59;100.00
30421;BME280;17218;54.070;10.012;2023-11-21T10:47:21;101683.03;;;8.63;100.00
30421;BME280;17218;54.070;10.012;2023-11-21T10:49:48;101683.13;;;8.69;100.00
30421;BME280;17218;54.070;10.012;2023-11-21T10:52:15;101688.50;;;8.81;100.00
30421;BME280;17218;54.070;10.012;2023-11-21T10:54:42;101692.78;;;8.82;100.00
30421;BME280;17218;54.070;10.012;2023-11-21T10:57:10;101689.41;;;8.85;100.00
30421;BME280;17218;54.070;10.012;2023-11-21T10:59:39;101679.06;;;8.83;100.00
30421;BME280;17218;54.070;10.012;2023-11-21T11:02:14;101688.41;;;8.77;100.00
30421;BME280;17218;54.070;10.012;2023-11-21T11:04:47;101693.56;;;8.77;100.00
30421;BME280;17218;54.070;10.012;2023-11-21T11:07:14;101681.63;;;8.83;100.00
30421;BME280;17218;54.070;10.012;2023-11-21T11:09:42;101685.97;;;8.88;100.00
30421;BME280;17218;54.070;10.012;2023-11-21T11:12:12;101679.94;;;8.86;100.00
30421;BME280;17218;54.070;10.012;2023-11-21T11:14:41;101691.13;;;8.85;100.00
30421;BME280;17218;54.070;10.012;2023-11-21T11:17:10;101697.28;;;8.93;100.00
30421;BME280;17218;54.070;10.012;2023-11-21T11:19:37;101701.63;;;8.97;100.00
30421;BME280;17218;54.070;10.012;2023-11-21T11:22:11;101698.84;;;8.83;100.00
30421;BME280;17218;54.070;10.012;2023-11-21T11:24:57;101700.56;;;8.84;100.00
30421;BME280;17218;54.070;10.012;2023-11-21T11:27:34;101702.31;;;8.85;100.00
30421;BME280;17218;54.070;10.012;2023-11-21T11:30:11;101706.63;;;8.85;100.00
30421;BME280;17218;54.070;10.012;2023-11-21T11:32:50;101712.69;;;8.88;100.00
30421;BME280;17218;54.070;10.012;2023-11-21T11:35:26;101703.25;;;8.90;100.00
30421;BME280;17218;54.070;10.012;2023-11-21T11:37:55;101718.75;;;8.89;100.00
30421;BME280;17218;54.070;10.012;2023-11-21T11:40:25;101719.63;;;8.89;100.00
30421;BME280;17218;54.070;10.012;2023-11-21T11:42:56;101728.97;;;8.82;100.00
30421;BME280;17218;54.070;10.012;2023-11-21T11:45:26;101718.56;;;8.76;100.00
30421;BME280;17218;54.070;10.012;2023-11-21T11:48:00;101729.81;;;8.80;100.00
30421;BME280;17218;54.070;10.012;2023-11-21T11:50:26;101719.41;;;8.77;100.00
30421;BME280;17218;54.070;10.012;2023-11-21T11:52:53;101726.31;;;8.78;100.00
30421;BME280;17218;54.070;10.012;2023-11-21T11:55:23;101722.91;;;8.80;100.00
30421;BME280;17218;54.070;10.012;2023-11-21T11:57:51;101728.84;;;8.75;100.00
30421;BME280;17218;54.070;10.012;2023-11-21T12:00:21;101731.41;;;8.73;100.00
30421;BME280;17218;54.070;10.012;2023-11-21T12:02:52;101738.22;;;8.68;100.00
30421;BME280;17218;54.070;10.012;2023-11-21T12:05:21;101736.34;;;8.59;100.00
30421;BME280;17218;54.070;10.012;2023-11-21T12:07:50;101749.25;;;8.59;100.00
30421;BME280;17218;54.070;10.012;2023-11-21T12:10:19;101768.22;;;8.59;100.00
30421;BME280;17218;54.070;10.012;2023-11-21T12:12:47;101769.91;;;8.57;100.00
30421;BME280;17218;54.070;10.012;2023-11-21T12:15:14;101769.59;;;8.42;100.00
30421;BME280;17218;54.070;10.012;2023-11-21T12:17:42;101772.06;;;8.35;100.00
30421;BME280;17218;54.070;10.012;2023-11-21T12:20:10;101778.00;;;8.31;100.00
30421;BME280;17218;54.070;10.012;2023-11-21T12:22:53;101770.25;;;8.30;100.00
30421;BME280;17218;54.070;10.012;2023-11-21T12:25:23;101771.06;;;8.29;100.00
30421;BME280;17218;54.070;10.012;2023-11-21T12:27:50;101786.69;;;8.35;100.00
30421;BME280;17218;54.070;10.012;2023-11-21T12:30:18;101786.72;;;8.37;100.00
30421;BME280;17218;54.070;10.012;2023-11-21T12:32:48;101787.63;;;8.40;100.00
30421;BME280;17218;54.070;10.012;2023-11-21T12:35:17;101786.81;;;8.41;100.00
30421;BME280;17218;54.070;10.012;2023-11-21T12:37:46;101792.00;;;8.43;100.00
30421;BME280;17218;54.070;10.012;2023-11-21T12:40:14;101796.34;;;8.47;100.00
30421;BME280;17218;54.070;10.012;2023-11-21T12:42:43;101787.75;;;8.46;100.00
30421;BME280;17218;54.070;10.012;2023-11-21T12:45:18;101809.22;;;8.44;100.00
30421;BME280;17218;54.070;10.012;2023-11-21T12:47:46;101812.69;;;8.44;100.00
30421;BME280;17218;54.070;10.012;2023-11-21T12:50:13;101809.97;;;8.38;100.00
30421;BME280;17218;54.070;10.012;2023-11-21T12:52:45;101826.09;;;8.26;100.00
30421;BME280;17218;54.070;10.012;2023-11-21T12:55:15;101823.38;;;8.20;100.00
30421;BME280;17218;54.070;10.012;2023-11-21T12:57:45;101837.16;;;8.19;100.00
30421;BME280;17218;54.070;10.012;2023-11-21T13:00:13;101828.50;;;8.17;100.00
30421;BME280;17218;54.070;10.012;2023-11-21T13:02:52;101842.97;;;8.10;100.00